sensor_id;sensor_type;location;lat;lon;timestamp;P1;durP1;ratioP1;P2;durP2;ratioP2
81679;SDS011;74989;52.210;5.148;2024-02-21T00:01:22;14.77;;;3.25;;
81679;SDS011;74989;52.210;5.148;2024-02-21T00:03:50;22.15;;;4.30;;
81679;SDS011;74989;52.210;5.148;2024-02-21T00:06:17;23.95;;;3.88;;
81679;SDS011;74989;52.210;5.148;2024-02-21T00:08:44;19.53;;;4.87;;
81679;SDS011;74989;52.210;5.148;2024-02-21T00:11:10;20.25;;;4.00;;
81679;SDS011;74989;52.210;5.148;2024-02-21T00:13:37;18.10;;;3.50;;
81679;SDS011;74989;52.210;5.148;2024-02-21T00:16:04;19.85;;;4.55;;
81679;SDS011;74989;52.210;5.148;2024-02-21T00:18:30;26.45;;;4.88;;
81679;SDS011;74989;52.210;5.148;2024-02-21T00:20:59;24.50;;;4.60;;
81679;SDS011;74989;52.210;5.148;2024-02-21T00:23:26;26.20;;;4.22;;
81679;SDS011;74989;52.210;5.148;2024-02-21T00:25:53;24.13;;;4.78;;
81679;SDS011;74989;52.210;5.148;2024-02-21T00:28:20;23.58;;;4.53;;
81679;SDS011;74989;52.210;5.148;2024-02-21T00:30:47;20.75;;;4.72;;
81679;SDS011;74989;52.210;5.148;2024-02-21T00:33:15;18.67;;;3.60;;
81679;SDS011;74989;52.210;5.148;2024-02-21T00:35:42;22.58;;;4.85;;
81679;SDS011;74989;52.210;5.148;2024-02-21T00:38:10;20.38;;;4.00;;
81679;SDS011;74989;52.210;5.148;2024-02-21T00:40:37;21.23;;;5.00;;
81679;SDS011;74989;52.210;5.148;2024-02-21T00:43:04;21.40;;;4.53;;
81679;SDS011;74989;52.210;5.148;2024-02-21T00:45:30;26.60;;;4.97;;
81679;SDS011;74989;52.210;5.148;2024-02-21T00:47:57;22.90;;;3.88;;
81679;SDS011;74989;52.210;5.148;2024-02-21T00:50:24;23.20;;;4.75;;
81679;SDS011;74989;52.210;5.148;2024-02-21T00:52:50;19.95;;;3.83;;
81679;SDS011;74989;52.210;5.148;2024-02-21T00:55:18;25.58;;;4.60;;
81679;SDS011;74989;52.210;5.148;2024-02-21T00:57:44;17.03;;;4.07;;
81679;SDS011;74989;52.210;5.148;2024-02-21T01:00:11;22.00;;;4.13;;
81679;SDS011;74989;52.210;5.148;2024-02-21T01:02:38;26.10;;;4.68;;
81679;SDS011;74989;52.210;5.148;2024-02-21T01:05:05;15.55;;;3.97;;
81679;SDS011;74989;52.210;5.148;2024-02-21T01:07:32;28.98;;;5.07;;
81679;SDS011;74989;52.210;5.148;2024-02-21T01:09:59;23.93;;;4.90;;
81679;SDS011;74989;52.210;5.148;2024-02-21T01:12:27;23.90;;;4.45;;
81679;SDS011;74989;52.210;5.148;2024-02-21T01:14:54;26.25;;;4.15;;
81679;SDS011;74989;52.210;5.148;2024-02-21T01:17:20;23.42;;;4.03;;
81679;SDS011;74989;52.210;5.148;2024-02-21T01:19:47;23.25;;;4.35;;
81679;SDS011;74989;52.210;5.148;2024-02-21T01:22:14;25.43;;;4.13;;
81679;SDS011;74989;52.210;5.148;2024-02-21T01:24:41;23.35;;;3.80;;
81679;SDS011;74989;52.210;5.148;2024-02-21T01:27:08;22.20;;;4.95;;
81679;SDS011;74989;52.210;5.148;2024-02-21T01:29:36;23.85;;;3.83;;
81679;SDS011;74989;52.210;5.148;2024-02-21T01:32:02;15.05;;;3.67;;
81679;SDS011;74989;52.210;5.148;2024-02-21T01:34:29;23.90;;;4.60;;
81679;SDS011;74989;52.210;5.148;2024-02-21T01:36:56;20.85;;;3.80;;
81679;SDS011;74989;52.210;5.148;2024-02-21T01:39:24;22.95;;;4.03;;
81679;SDS011;74989;52.210;5.148;2024-02-21T01:41:51;22.73;;;4.50;;
81679;SDS011;74989;52.210;5.148;2024-02-21T01:44:17;17.65;;;3.88;;
81679;SDS011;74989;52.210;5.148;2024-02-21T01:46:45;14.33;;;3.47;;
81679;SDS011;74989;52.210;5.148;2024-02-21T01:49:12;34.03;;;4.18;;
81679;SDS011;74989;52.210;5.148;2024-02-21T01:51:39;18.08;;;3.58;;
81679;SDS011;74989;52.210;5.148;2024-02-21T01:54:06;23.00;;;4.65;;
81679;SDS011;74989;52.210;5.148;2024-02-21T01:56:33;24.48;;;4.38;;
81679;SDS011;74989;52.210;5.148;2024-02-21T01:59:00;20.10;;;3.40;;
81679;SDS011;74989;52.210;5.148;2024-02-21T02:01:27;24.65;;;4.03;;
81679;SDS011;74989;52.210;5.148;2024-02-21T02:03:57;21.40;;;3.75;;
81679;SDS011;74989;52.210;5.148;2024-02-21T02:06:25;19.35;;;3.75;;
81679;SDS011;74989;52.210;5.148;2024-02-21T02:08:53;23.95;;;4.20;;
81679;SDS011;74989;52.210;5.148;2024-02-21T02:11:20;21.57;;;4.47;;
81679;SDS011;74989;52.210;5.148;2024-02-21T02:13:47;27.25;;;3.95;;
81679;SDS011;74989;52.210;5.148;2024-02-21T02:16:14;24.13;;;4.72;;
81679;SDS011;74989;52.210;5.148;2024-02-21T02:18:40;19.55;;;4.47;;
81679;SDS011;74989;52.210;5.148;2024-02-21T02:21:10;20.30;;;3.75;;
81679;SDS011;74989;52.210;5.148;2024-02-21T02:23:48;22.27;;;4.17;;
81679;SDS011;74989;52.210;5.148;2024-02-21T02:26:15;23.30;;;3.40;;
81679;SDS011;74989;52.210;5.148;2024-02-21T02:28:41;25.13;;;3.45;;
81679;SDS011;74989;52.210;5.148;2024-02-21T02:31:08;22.55;;;3.67;;
81679;SDS011;74989;52.210;5.148;2024-02-21T02:33:35;19.50;;;3.40;;
81679;SDS011;74989;52.210;5.148;2024-02-21T02:36:01;24.07;;;3.60;;
81679;SDS011;74989;52.210;5.148;2024-02-21T02:38:28;22.70;;;3.55;;
81679;SDS011;74989;52.210;5.148;2024-02-21T02:40:56;21.52;;;3.40;;
81679;SDS011;74989;52.210;5.148;2024-02-21T02:43:23;20.48;;;3.90;;
81679;SDS011;74989;52.210;5.148;2024-02-21T02:45:49;21.45;;;3.97;;
81679;SDS011;74989;52.210;5.148;2024-02-21T02:48:16;18.80;;;3.27;;
81679;SDS011;74989;52.210;5.148;2024-02-21T02:50:44;21.30;;;3.65;;
81679;SDS011;74989;52.210;5.148;2024-02-21T02:53:12;20.05;;;3.33;;
81679;SDS011;74989;52.210;5.148;2024-02-21T02:55:38;22.30;;;3.60;;
81679;SDS011;74989;52.210;5.148;2024-02-21T02:58:06;24.88;;;3.55;;
81679;SDS011;74989;52.210;5.148;2024-02-21T03:00:34;27.37;;;4.60;;
81679;SDS011;74989;52.210;5.148;2024-02-21T03:03:01;21.70;;;4.63;;
81679;SDS011;74989;52.210;5.148;2024-02-21T03:05:29;21.33;;;3.95;;
81679;SDS011;74989;52.210;5.148;2024-02-21T03:07:55;22.42;;;4.38;;
81679;SDS011;74989;52.210;5.148;2024-02-21T03:10:22;35.58;;;4.72;;
81679;SDS011;74989;52.210;5.148;2024-02-21T03:12:49;18.77;;;4.00;;
81679;SDS011;74989;52.210;5.148;2024-02-21T03:15:19;24.77;;;4.10;;
81679;SDS011;74989;52.210;5.148;2024-02-21T03:17:46;20.98;;;3.60;;
81679;SDS011;74989;52.210;5.148;2024-02-21T03:20:12;32.92;;;4.45;;
81679;SDS011;74989;52.210;5.148;2024-02-21T03:22:39;25.42;;;4.15;;
81679;SDS011;74989;52.210;5.148;2024-02-21T03:25:06;18.40;;;3.90;;
81679;SDS011;74989;52.210;5.148;2024-02-21T03:27:34;26.70;;;4.55;;
81679;SDS011;74989;52.210;5.148;2024-02-21T03:30:01;21.05;;;3.92;;
81679;SDS011;74989;52.210;5.148;2024-02-21T03:32:29;27.50;;;4.60;;
81679;SDS011;74989;52.210;5.148;2024-02-21T03:34:56;25.13;;;4.78;;
81679;SDS011;74989;52.210;5.148;2024-02-21T03:37:22;20.63;;;4.17;;
81679;SDS011;74989;52.210;5.148;2024-02-21T03:39:49;23.42;;;4.47;;
81679;SDS011;74989;52.210;5.148;2024-02-21T03:42:15;25.00;;;3.75;;
81679;SDS011;74989;52.210;5.148;2024-02-21T03:44:42;22.65;;;4.15;;
81679;SDS011;74989;52.210;5.148;2024-02-21T03:47:09;19.45;;;4.05;;
81679;SDS011;74989;52.210;5.148;2024-02-21T03:49:38;23.03;;;5.40;;
81679;SDS011;74989;52.210;5.148;2024-02-21T03:52:04;20.83;;;3.95;;
81679;SDS011;74989;52.210;5.148;2024-02-21T03:54:31;24.90;;;4.25;;
81679;SDS011;74989;52.210;5.148;2024-02-21T03:56:58;27.38;;;4.95;;
81679;SDS011;74989;52.210;5.148;2024-02-21T03:59:24;25.02;;;3.88;;
81679;SDS011;74989;52.210;5.148;2024-02-21T04:01:51;22.83;;;4.30;;
81679;SDS011;74989;52.210;5.148;2024-02-21T04:04:18;20.63;;;5.00;;
81679;SDS011;74989;52.210;5.148;2024-02-21T04:06:49;22.00;;;4.88;;
81679;SDS011;74989;52.210;5.148;2024-02-21T04:09:15;18.40;;;3.92;;
81679;SDS011;74989;52.210;5.148;2024-02-21T04:11:42;23.08;;;4.47;;
81679;SDS011;74989;52.210;5.148;2024-02-21T04:14:09;16.17;;;4.43;;
81679;SDS011;74989;52.210;5.148;2024-02-21T04:16:36;23.08;;;4.57;;
81679;SDS011;74989;52.210;5.148;2024-02-21T04:19:04;35.50;;;5.72;;
81679;SDS011;74989;52.210;5.148;2024-02-21T04:21:30;24.55;;;5.55;;
81679;SDS011;74989;52.210;5.148;2024-02-21T04:23:58;20.42;;;5.38;;
81679;SDS011;74989;52.210;5.148;2024-02-21T04:26:26;20.40;;;6.10;;
81679;SDS011;74989;52.210;5.148;2024-02-21T04:28:53;23.10;;;6.28;;
81679;SDS011;74989;52.210;5.148;2024-02-21T04:31:19;21.70;;;6.15;;
81679;SDS011;74989;52.210;5.148;2024-02-21T04:33:46;19.15;;;5.82;;
81679;SDS011;74989;52.210;5.148;2024-02-21T04:36:13;17.17;;;5.80;;
81679;SDS011;74989;52.210;5.148;2024-02-21T04:38:39;16.70;;;5.47;;
81679;SDS011;74989;52.210;5.148;2024-02-21T04:41:07;17.25;;;5.15;;
81679;SDS011;74989;52.210;5.148;2024-02-21T04:43:34;15.38;;;5.45;;
81679;SDS011;74989;52.210;5.148;2024-02-21T04:46:01;14.13;;;4.80;;
81679;SDS011;74989;52.210;5.148;2024-02-21T04:48:28;15.23;;;5.45;;
81679;SDS011;74989;52.210;5.148;2024-02-21T04:50:54;16.63;;;5.87;;
81679;SDS011;74989;52.210;5.148;2024-02-21T04:53:21;14.07;;;4.57;;
81679;SDS011;74989;52.210;5.148;2024-02-21T04:55:48;13.98;;;5.65;;
81679;SDS011;74989;52.210;5.148;2024-02-21T04:58:15;13.23;;;5.03;;
81679;SDS011;74989;52.210;5.148;2024-02-21T05:00:42;16.30;;;5.88;;
81679;SDS011;74989;52.210;5.148;2024-02-21T05:03:09;11.93;;;5.30;;
81679;SDS011;74989;52.210;5.148;2024-02-21T05:05:36;18.15;;;5.88;;
81679;SDS011;74989;52.210;5.148;2024-02-21T05:08:03;16.45;;;5.75;;
81679;SDS011;74989;52.210;5.148;2024-02-21T05:10:30;14.77;;;6.53;;
81679;SDS011;74989;52.210;5.148;2024-02-21T05:12:57;13.57;;;5.28;;
81679;SDS011;74989;52.210;5.148;2024-02-21T05:15:25;20.77;;;6.53;;
81679;SDS011;74989;52.210;5.148;2024-02-21T05:17:51;19.10;;;5.43;;
81679;SDS011;74989;52.210;5.148;2024-02-21T05:20:18;13.48;;;6.10;;
81679;SDS011;74989;52.210;5.148;2024-02-21T05:22:45;17.30;;;5.82;;
81679;SDS011;74989;52.210;5.148;2024-02-21T05:25:12;18.80;;;6.28;;
81679;SDS011;74989;52.210;5.148;2024-02-21T05:27:38;13.80;;;6.53;;
81679;SDS011;74989;52.210;5.148;2024-02-21T05:30:05;12.43;;;5.75;;
81679;SDS011;74989;52.210;5.148;2024-02-21T05:32:34;11.13;;;5.63;;
81679;SDS011;74989;52.210;5.148;2024-02-21T05:35:01;15.10;;;6.75;;
81679;SDS011;74989;52.210;5.148;2024-02-21T05:37:27;10.82;;;6.50;;
81679;SDS011;74989;52.210;5.148;2024-02-21T05:39:54;12.77;;;6.13;;
81679;SDS011;74989;52.210;5.148;2024-02-21T05:42:21;13.05;;;6.65;;
81679;SDS011;74989;52.210;5.148;2024-02-21T05:44:47;14.70;;;7.28;;
81679;SDS011;74989;52.210;5.148;2024-02-21T05:47:14;14.50;;;7.28;;
81679;SDS011;74989;52.210;5.148;2024-02-21T05:49:42;15.32;;;7.20;;
81679;SDS011;74989;52.210;5.148;2024-02-21T05:52:08;12.50;;;6.97;;
81679;SDS011;74989;52.210;5.148;2024-02-21T05:54:37;16.10;;;7.75;;
81679;SDS011;74989;52.210;5.148;2024-02-21T05:57:04;19.58;;;7.38;;
81679;SDS011;74989;52.210;5.148;2024-02-21T05:59:31;16.75;;;8.20;;
81679;SDS011;74989;52.210;5.148;2024-02-21T06:01:57;12.43;;;7.10;;
81679;SDS011;74989;52.210;5.148;2024-02-21T06:04:24;12.47;;;7.77;;
81679;SDS011;74989;52.210;5.148;2024-02-21T06:06:52;15.27;;;8.40;;
81679;SDS011;74989;52.210;5.148;2024-02-21T06:09:19;21.52;;;8.88;;
81679;SDS011;74989;52.210;5.148;2024-02-21T06:11:45;18.67;;;7.53;;
81679;SDS011;74989;52.210;5.148;2024-02-21T06:14:14;16.75;;;7.18;;
81679;SDS011;74989;52.210;5.148;2024-02-21T06:16:40;16.83;;;9.03;;
81679;SDS011;74989;52.210;5.148;2024-02-21T06:19:07;29.88;;;7.82;;
81679;SDS011;74989;52.210;5.148;2024-02-21T06:21:34;16.95;;;8.23;;
81679;SDS011;74989;52.210;5.148;2024-02-21T06:24:02;13.63;;;7.25;;
81679;SDS011;74989;52.210;5.148;2024-02-21T06:26:29;23.02;;;8.00;;
81679;SDS011;74989;52.210;5.148;2024-02-21T06:28:56;13.93;;;7.50;;
81679;SDS011;74989;52.210;5.148;2024-02-21T06:31:24;18.40;;;8.25;;
81679;SDS011;74989;52.210;5.148;2024-02-21T06:33:51;18.50;;;8.15;;
81679;SDS011;74989;52.210;5.148;2024-02-21T06:36:18;26.30;;;9.20;;
81679;SDS011;74989;52.210;5.148;2024-02-21T06:38:44;20.48;;;9.23;;
81679;SDS011;74989;52.210;5.148;2024-02-21T06:41:15;13.23;;;7.73;;
81679;SDS011;74989;52.210;5.148;2024-02-21T06:43:43;13.20;;;7.10;;
81679;SDS011;74989;52.210;5.148;2024-02-21T06:46:10;15.02;;;8.05;;
81679;SDS011;74989;52.210;5.148;2024-02-21T06:48:37;17.27;;;8.45;;
81679;SDS011;74989;52.210;5.148;2024-02-21T06:51:04;23.27;;;9.00;;
81679;SDS011;74989;52.210;5.148;2024-02-21T06:53:30;22.70;;;10.40;;
81679;SDS011;74989;52.210;5.148;2024-02-21T06:55:57;19.40;;;9.02;;
81679;SDS011;74989;52.210;5.148;2024-02-21T06:58:25;21.50;;;8.30;;
81679;SDS011;74989;52.210;5.148;2024-02-21T07:00:52;18.25;;;8.07;;
81679;SDS011;74989;52.210;5.148;2024-02-21T07:03:19;16.33;;;8.05;;
81679;SDS011;74989;52.210;5.148;2024-02-21T07:05:45;18.93;;;8.60;;
81679;SDS011;74989;52.210;5.148;2024-02-21T07:08:12;22.38;;;9.50;;
81679;SDS011;74989;52.210;5.148;2024-02-21T07:10:38;23.90;;;9.70;;
81679;SDS011;74989;52.210;5.148;2024-02-21T07:13:05;19.67;;;8.30;;
81679;SDS011;74989;52.210;5.148;2024-02-21T07:15:33;16.15;;;8.27;;
81679;SDS011;74989;52.210;5.148;2024-02-21T07:18:01;23.90;;;9.50;;
81679;SDS011;74989;52.210;5.148;2024-02-21T07:20:28;16.65;;;9.13;;
81679;SDS011;74989;52.210;5.148;2024-02-21T07:22:55;29.40;;;9.57;;
81679;SDS011;74989;52.210;5.148;2024-02-21T07:25:21;21.50;;;9.93;;
81679;SDS011;74989;52.210;5.148;2024-02-21T07:27:48;23.45;;;9.13;;
81679;SDS011;74989;52.210;5.148;2024-02-21T07:30:15;25.73;;;9.30;;
81679;SDS011;74989;52.210;5.148;2024-02-21T07:32:43;26.08;;;10.48;;
81679;SDS011;74989;52.210;5.148;2024-02-21T07:35:11;26.67;;;9.20;;
81679;SDS011;74989;52.210;5.148;2024-02-21T07:37:37;19.80;;;8.43;;
81679;SDS011;74989;52.210;5.148;2024-02-21T07:40:05;23.50;;;8.90;;
81679;SDS011;74989;52.210;5.148;2024-02-21T07:42:32;20.67;;;9.20;;
81679;SDS011;74989;52.210;5.148;2024-02-21T07:45:01;29.50;;;9.45;;
81679;SDS011;74989;52.210;5.148;2024-02-21T07:47:28;28.67;;;10.65;;
81679;SDS011;74989;52.210;5.148;2024-02-21T07:49:56;20.92;;;9.65;;
81679;SDS011;74989;52.210;5.148;2024-02-21T07:52:23;22.35;;;9.55;;
81679;SDS011;74989;52.210;5.148;2024-02-21T07:54:50;23.73;;;9.40;;
81679;SDS011;74989;52.210;5.148;2024-02-21T07:57:16;25.73;;;10.02;;
81679;SDS011;74989;52.210;5.148;2024-02-21T07:59:43;27.33;;;10.35;;
81679;SDS011;74989;52.210;5.148;2024-02-21T08:02:12;21.58;;;9.68;;
81679;SDS011;74989;52.210;5.148;2024-02-21T08:04:39;16.55;;;9.40;;
81679;SDS011;74989;52.210;5.148;2024-02-21T08:07:07;21.40;;;10.33;;
81679;SDS011;74989;52.210;5.148;2024-02-21T08:09:34;19.30;;;9.27;;
81679;SDS011;74989;52.210;5.148;2024-02-21T08:12:03;20.42;;;9.52;;
81679;SDS011;74989;52.210;5.148;2024-02-21T08:14:30;22.50;;;9.95;;
81679;SDS011;74989;52.210;5.148;2024-02-21T08:16:59;30.45;;;11.35;;
81679;SDS011;74989;52.210;5.148;2024-02-21T08:19:25;26.93;;;10.10;;
81679;SDS011;74989;52.210;5.148;2024-02-21T08:21:52;17.70;;;9.68;;
81679;SDS011;74989;52.210;5.148;2024-02-21T08:24:20;30.95;;;10.60;;
81679;SDS011;74989;52.210;5.148;2024-02-21T08:26:48;18.17;;;10.50;;
81679;SDS011;74989;52.210;5.148;2024-02-21T08:29:14;23.42;;;10.75;;
81679;SDS011;74989;52.210;5.148;2024-02-21T08:31:41;21.10;;;10.50;;
81679;SDS011;74989;52.210;5.148;2024-02-21T08:34:08;20.33;;;10.77;;
81679;SDS011;74989;52.210;5.148;2024-02-21T08:36:35;24.70;;;10.65;;
81679;SDS011;74989;52.210;5.148;2024-02-21T08:39:02;25.38;;;11.10;;
81679;SDS011;74989;52.210;5.148;2024-02-21T08:41:31;20.73;;;11.35;;
81679;SDS011;74989;52.210;5.148;2024-02-21T08:43:58;20.63;;;9.60;;
81679;SDS011;74989;52.210;5.148;2024-02-21T08:46:26;25.02;;;10.55;;
81679;SDS011;74989;52.210;5.148;2024-02-21T08:48:55;22.15;;;11.25;;
81679;SDS011;74989;52.210;5.148;2024-02-21T08:51:22;23.63;;;10.52;;
81679;SDS011;74989;52.210;5.148;2024-02-21T08:53:49;21.48;;;11.50;;
81679;SDS011;74989;52.210;5.148;2024-02-21T08:56:16;25.87;;;11.17;;
81679;SDS011;74989;52.210;5.148;2024-02-21T08:58:45;20.65;;;10.52;;
81679;SDS011;74989;52.210;5.148;2024-02-21T09:01:12;26.20;;;11.32;;
81679;SDS011;74989;52.210;5.148;2024-02-21T09:03:39;27.48;;;11.00;;
81679;SDS011;74989;52.210;5.148;2024-02-21T09:06:06;23.90;;;12.27;;
81679;SDS011;74989;52.210;5.148;2024-02-21T09:08:33;20.93;;;11.97;;
81679;SDS011;74989;52.210;5.148;2024-02-21T09:11:00;31.65;;;13.55;;
81679;SDS011;74989;52.210;5.148;2024-02-21T09:13:27;23.45;;;12.30;;
81679;SDS011;74989;52.210;5.148;2024-02-21T09:15:55;26.10;;;11.88;;
81679;SDS011;74989;52.210;5.148;2024-02-21T09:18:22;24.60;;;11.95;;
81679;SDS011;74989;52.210;5.148;2024-02-21T09:20:49;23.33;;;11.30;;
81679;SDS011;74989;52.210;5.148;2024-02-21T09:23:16;23.67;;;11.60;;
81679;SDS011;74989;52.210;5.148;2024-02-21T09:25:45;21.15;;;11.15;;
81679;SDS011;74989;52.210;5.148;2024-02-21T09:28:12;17.42;;;10.75;;
81679;SDS011;74989;52.210;5.148;2024-02-21T09:30:39;30.25;;;11.38;;
81679;SDS011;74989;52.210;5.148;2024-02-21T09:33:07;25.03;;;10.80;;
81679;SDS011;74989;52.210;5.148;2024-02-21T09:35:47;23.80;;;10.73;;
81679;SDS011;74989;52.210;5.148;2024-02-21T09:38:15;17.80;;;9.32;;
81679;SDS011;74989;52.210;5.148;2024-02-21T09:40:43;20.92;;;11.30;;
81679;SDS011;74989;52.210;5.148;2024-02-21T09:43:10;21.52;;;10.00;;
81679;SDS011;74989;52.210;5.148;2024-02-21T09:45:41;20.17;;;10.33;;
81679;SDS011;74989;52.210;5.148;2024-02-21T09:48:19;19.45;;;9.95;;
81679;SDS011;74989;52.210;5.148;2024-02-21T09:50:57;17.27;;;8.80;;
81679;SDS011;74989;52.210;5.148;2024-02-21T09:53:25;18.42;;;9.88;;
81679;SDS011;74989;52.210;5.148;2024-02-21T09:55:52;19.13;;;8.15;;
81679;SDS011;74989;52.210;5.148;2024-02-21T09:58:19;22.87;;;9.20;;
81679;SDS011;74989;52.210;5.148;2024-02-21T10:00:47;18.33;;;9.32;;
81679;SDS011;74989;52.210;5.148;2024-02-21T10:03:16;19.85;;;8.95;;
81679;SDS011;74989;52.210;5.148;2024-02-21T10:05:46;16.65;;;8.32;;
81679;SDS011;74989;52.210;5.148;2024-02-21T10:08:15;16.90;;;8.20;;
81679;SDS011;74989;52.210;5.148;2024-02-21T10:10:42;16.77;;;7.83;;
81679;SDS011;74989;52.210;5.148;2024-02-21T10:13:10;14.15;;;7.18;;
81679;SDS011;74989;52.210;5.148;2024-02-21T10:15:37;15.73;;;7.75;;
81679;SDS011;74989;52.210;5.148;2024-02-21T10:18:04;15.52;;;7.43;;
81679;SDS011;74989;52.210;5.148;2024-02-21T10:20:33;10.82;;;6.55;;
81679;SDS011;74989;52.210;5.148;2024-02-21T10:23:00;13.13;;;6.13;;
81679;SDS011;74989;52.210;5.148;2024-02-21T10:25:28;13.63;;;6.85;;
81679;SDS011;74989;52.210;5.148;2024-02-21T10:27:56;11.73;;;6.32;;
81679;SDS011;74989;52.210;5.148;2024-02-21T10:30:23;14.23;;;7.10;;
81679;SDS011;74989;52.210;5.148;2024-02-21T10:32:50;13.25;;;6.30;;
81679;SDS011;74989;52.210;5.148;2024-02-21T10:35:25;12.43;;;6.20;;
81679;SDS011;74989;52.210;5.148;2024-02-21T10:37:54;11.00;;;6.57;;
81679;SDS011;74989;52.210;5.148;2024-02-21T10:40:22;13.43;;;6.20;;
81679;SDS011;74989;52.210;5.148;2024-02-21T10:42:50;12.88;;;6.80;;
81679;SDS011;74989;52.210;5.148;2024-02-21T10:45:22;13.75;;;6.47;;
81679;SDS011;74989;52.210;5.148;2024-02-21T10:47:54;9.97;;;6.17;;
81679;SDS011;74989;52.210;5.148;2024-02-21T10:50:22;15.35;;;6.03;;
81679;SDS011;74989;52.210;5.148;2024-02-21T10:52:55;14.18;;;5.80;;
81679;SDS011;74989;52.210;5.148;2024-02-21T10:55:32;10.88;;;5.25;;
81679;SDS011;74989;52.210;5.148;2024-02-21T10:58:04;10.57;;;5.20;;
81679;SDS011;74989;52.210;5.148;2024-02-21T11:00:31;9.07;;;5.80;;
81679;SDS011;74989;52.210;5.148;2024-02-21T11:02:59;9.30;;;5.63;;
81679;SDS011;74989;52.210;5.148;2024-02-21T11:05:26;8.43;;;5.18;;
81679;SDS011;74989;52.210;5.148;2024-02-21T11:07:56;9.60;;;5.28;;
81679;SDS011;74989;52.210;5.148;2024-02-21T11:10:24;5.93;;;4.75;;
81679;SDS011;74989;52.210;5.148;2024-02-21T11:12:52;12.17;;;4.80;;
81679;SDS011;74989;52.210;5.148;2024-02-21T11:15:24;8.27;;;4.60;;
81679;SDS011;74989;52.210;5.148;2024-02-21T11:17:55;9.73;;;5.50;;
81679;SDS011;74989;52.210;5.148;2024-02-21T11:20:31;8.15;;;5.63;;
81679;SDS011;74989;52.210;5.148;2024-02-21T11:23:00;8.57;;;4.38;;
81679;SDS011;74989;52.210;5.148;2024-02-21T11:25:27;9.10;;;5.50;;
81679;SDS011;74989;52.210;5.148;2024-02-21T11:28:01;7.50;;;4.45;;
81679;SDS011;74989;52.210;5.148;2024-02-21T11:30:29;6.30;;;4.35;;
81679;SDS011;74989;52.210;5.148;2024-02-21T11:33:01;8.68;;;5.05;;
81679;SDS011;74989;52.210;5.148;2024-02-21T11:35:31;14.35;;;5.35;;
81679;SDS011;74989;52.210;5.148;2024-02-21T11:38:10;8.00;;;5.50;;
81679;SDS011;74989;52.210;5.148;2024-02-21T11:40:40;9.50;;;5.95;;
81679;SDS011;74989;52.210;5.148;2024-02-21T11:43:07;9.38;;;5.65;;
81679;SDS011;74989;52.210;5.148;2024-02-21T11:45:33;11.20;;;6.45;;
81679;SDS011;74989;52.210;5.148;2024-02-21T11:48:00;9.93;;;6.90;;
81679;SDS011;74989;52.210;5.148;2024-02-21T11:50:28;11.90;;;6.27;;
81679;SDS011;74989;52.210;5.148;2024-02-21T11:52:55;8.88;;;5.57;;
81679;SDS011;74989;52.210;5.148;2024-02-21T11:55:23;12.15;;;6.63;;
81679;SDS011;74989;52.210;5.148;2024-02-21T11:57:50;9.98;;;5.75;;
81679;SDS011;74989;52.210;5.148;2024-02-21T12:00:17;10.73;;;6.00;;
81679;SDS011;74989;52.210;5.148;2024-02-21T12:02:46;12.03;;;6.13;;
81679;SDS011;74989;52.210;5.148;2024-02-21T12:05:15;11.23;;;5.10;;
81679;SDS011;74989;52.210;5.148;2024-02-21T12:07:42;11.38;;;5.78;;
81679;SDS011;74989;52.210;5.148;2024-02-21T12:10:10;8.13;;;5.88;;
81679;SDS011;74989;52.210;5.148;2024-02-21T12:12:38;9.02;;;5.38;;
81679;SDS011;74989;52.210;5.148;2024-02-21T12:15:05;10.97;;;5.63;;
81679;SDS011;74989;52.210;5.148;2024-02-21T12:17:33;9.30;;;6.18;;
81679;SDS011;74989;52.210;5.148;2024-02-21T12:20:01;12.85;;;5.43;;
81679;SDS011;74989;52.210;5.148;2024-02-21T12:22:29;11.80;;;5.82;;
81679;SDS011;74989;52.210;5.148;2024-02-21T12:24:57;9.68;;;5.93;;
81679;SDS011;74989;52.210;5.148;2024-02-21T12:27:24;13.17;;;6.33;;
81679;SDS011;74989;52.210;5.148;2024-02-21T12:29:53;8.73;;;5.57;;
81679;SDS011;74989;52.210;5.148;2024-02-21T12:32:19;9.90;;;5.93;;
81679;SDS011;74989;52.210;5.148;2024-02-21T12:34:46;8.15;;;5.60;;
81679;SDS011;74989;52.210;5.148;2024-02-21T12:37:13;8.57;;;4.60;;
81679;SDS011;74989;52.210;5.148;2024-02-21T12:39:41;13.80;;;5.87;;
81679;SDS011;74989;52.210;5.148;2024-02-21T12:42:07;12.20;;;5.72;;
81679;SDS011;74989;52.210;5.148;2024-02-21T12:44:36;9.00;;;4.72;;
81679;SDS011;74989;52.210;5.148;2024-02-21T12:47:05;11.85;;;6.07;;
81679;SDS011;74989;52.210;5.148;2024-02-21T12:49:33;8.30;;;4.65;;
81679;SDS011;74989;52.210;5.148;2024-02-21T12:52:00;11.70;;;5.80;;
81679;SDS011;74989;52.210;5.148;2024-02-21T12:54:26;9.05;;;5.13;;
81679;SDS011;74989;52.210;5.148;2024-02-21T12:56:55;12.15;;;5.45;;
81679;SDS011;74989;52.210;5.148;2024-02-21T12:59:22;10.40;;;4.47;;
81679;SDS011;74989;52.210;5.148;2024-02-21T13:01:49;9.60;;;4.80;;
81679;SDS011;74989;52.210;5.148;2024-02-21T13:04:17;7.07;;;4.73;;
81679;SDS011;74989;52.210;5.148;2024-02-21T13:06:44;8.98;;;5.00;;
81679;SDS011;74989;52.210;5.148;2024-02-21T13:09:11;10.35;;;5.30;;
81679;SDS011;74989;52.210;5.148;2024-02-21T13:11:38;6.93;;;4.80;;
81679;SDS011;74989;52.210;5.148;2024-02-21T13:14:06;8.32;;;4.53;;
81679;SDS011;74989;52.210;5.148;2024-02-21T13:16:32;7.30;;;4.80;;
81679;SDS011;74989;52.210;5.148;2024-02-21T13:19:04;12.52;;;4.80;;
81679;SDS011;74989;52.210;5.148;2024-02-21T13:21:32;10.20;;;4.78;;
81679;SDS011;74989;52.210;5.148;2024-02-21T13:23:58;8.52;;;4.43;;
81679;SDS011;74989;52.210;5.148;2024-02-21T13:26:25;12.20;;;4.00;;
81679;SDS011;74989;52.210;5.148;2024-02-21T13:28:52;11.27;;;4.90;;
81679;SDS011;74989;52.210;5.148;2024-02-21T13:31:19;9.18;;;4.28;;
81679;SDS011;74989;52.210;5.148;2024-02-21T13:33:46;9.65;;;4.97;;
81679;SDS011;74989;52.210;5.148;2024-02-21T13:36:13;10.65;;;4.90;;
81679;SDS011;74989;52.210;5.148;2024-02-21T13:38:41;8.05;;;4.15;;
81679;SDS011;74989;52.210;5.148;2024-02-21T13:41:08;9.93;;;4.40;;
81679;SDS011;74989;52.210;5.148;2024-02-21T13:43:34;9.18;;;4.28;;
81679;SDS011;74989;52.210;5.148;2024-02-21T13:46:01;8.43;;;3.47;;
81679;SDS011;74989;52.210;5.148;2024-02-21T13:48:30;15.38;;;3.90;;
81679;SDS011;74989;52.210;5.148;2024-02-21T13:50:58;10.30;;;4.03;;
81679;SDS011;74989;52.210;5.148;2024-02-21T13:53:27;10.23;;;4.40;;
81679;SDS011;74989;52.210;5.148;2024-02-21T13:55:55;8.35;;;3.35;;
81679;SDS011;74989;52.210;5.148;2024-02-21T13:58:22;9.23;;;3.95;;
81679;SDS011;74989;52.210;5.148;2024-02-21T14:00:50;6.45;;;3.50;;
81679;SDS011;74989;52.210;5.148;2024-02-21T14:03:17;11.30;;;4.60;;
81679;SDS011;74989;52.210;5.148;2024-02-21T14:05:45;11.27;;;4.40;;
81679;SDS011;74989;52.210;5.148;2024-02-21T14:08:13;6.88;;;4.00;;
81679;SDS011;74989;52.210;5.148;2024-02-21T14:10:40;10.35;;;4.63;;
81679;SDS011;74989;52.210;5.148;2024-02-21T14:13:10;12.57;;;5.93;;
81679;SDS011;74989;52.210;5.148;2024-02-21T14:15:37;9.45;;;4.40;;
81679;SDS011;74989;52.210;5.148;2024-02-21T14:18:06;11.13;;;4.87;;
81679;SDS011;74989;52.210;5.148;2024-02-21T14:20:34;10.63;;;4.53;;
81679;SDS011;74989;52.210;5.148;2024-02-21T14:23:01;11.27;;;4.72;;
81679;SDS011;74989;52.210;5.148;2024-02-21T14:25:29;12.35;;;4.20;;
81679;SDS011;74989;52.210;5.148;2024-02-21T14:27:56;15.82;;;4.93;;
81679;SDS011;74989;52.210;5.148;2024-02-21T14:30:24;7.90;;;4.43;;
81679;SDS011;74989;52.210;5.148;2024-02-21T14:32:51;13.52;;;4.65;;
81679;SDS011;74989;52.210;5.148;2024-02-21T14:35:17;12.80;;;4.53;;
81679;SDS011;74989;52.210;5.148;2024-02-21T14:37:44;10.25;;;4.60;;